Time;durP1;ratioP1;P1;durP2;ratioP2;P2;SDS_P1;SDS_P2;PMS_P1;PMS_P2;Temp;Humidity;BMP_temperature;BMP_pressure;BME280_temperature;BME280_humidity;BME280_pressure;Samples;Min_cycle;Max_cycle;Signal;HPM_P1;HPM_P2
2022/08/10 00:08:44;;;;;;;;;;;;;;;;;;21164064;28;19930;-56
2022/08/10 00:19:04;;;;;;;;;;;;;;;;;;21163443;28;19923;-56
2022/08/10 00:29:06;;;;;;;;;;;;;;;;;;21164192;28;19931;-57
2022/08/10 00:39:08;;;;;;;;;;;;;;;;;;21163498;28;20403;-56
2022/08/10 00:49:09;;;;;;;;;;;;;;;;;;21162257;28;19969;-57
2022/08/10 00:59:11;;;;;;;;;;;;;;;;;;21162405;28;19931;-56
2022/08/10 01:09:12;;;;;;;;;;;;;;;;;;21162979;28;20272;-58
2022/08/10 01:19:15;;;;;;;;;;;;;;;;;;21177006;28;19930;-57
2022/08/10 01:29:17;;;;;;;;;;;;;;;;;;21176698;28;20352;-56
2022/08/10 01:39:22;;;;;;;;;;;;;;;;;;21176013;28;19927;-57
2022/08/10 01:49:26;;;;;;;;;;;;;;;;;;21176051;28;19931;-62
2022/08/10 01:59:31;;;;;;;;;;;;;;;;;;21174928;28;19963;-57
2022/08/10 02:09:43;;;;;;;;;;;;;;;;;;21173169;28;20317;-55
2022/08/10 02:19:48;;;;;;;;;;;;;;;;;;21171742;28;20018;-56
2022/08/10 02:29:53;;;;;;;;;;;;;;;;;;21172201;28;20367;-59
2022/08/10 02:39:57;;;;;;;;;;;;;;;;;;21171239;28;19930;-56
2022/08/10 02:50:00;;;;;;;;;;;;;;;;;;21172310;28;20014;-56
2022/08/10 03:00:03;;;;;;;;;;;;;;;;;;21170712;28;19935;-57
2022/08/10 03:10:05;;;;;;;;;;;;;;;;;;21177426;28;19924;-56
2022/08/10 03:20:08;;;;;;;;;;;;;;;;;;21168710;28;20022;-58
2022/08/10 03:30:10;;;;;;;;;;;;;;;;;;21169367;28;20273;-60
2022/08/10 03:40:13;;;;;;;;;;;;;;;;;;21165899;28;20001;-57
2022/08/10 03:50:15;;;;;;;;;;;;;;;;;;21166151;28;19963;-58
2022/08/10 04:00:17;;;;;;;;;;;;;;;;;;21164750;28;19923;-57
2022/08/10 04:10:20;;;;;;;;;;;;;;;;;;21164371;28;19930;-56
2022/08/10 04:20:22;;;;;;;;;;;;;;;;;;21166852;28;19923;-57
2022/08/10 04:30:24;;;;;;;;;;;;;;;;;;21164604;28;19924;-58
2022/08/10 04:40:26;;;;;;;;;;;;;;;;;;21162761;28;20300;-63
2022/08/10 04:50:28;;;;;;;;;;;;;;;;;;21175748;28;20053;-58
2022/08/10 05:00:30;;;;;;;;;;;;;;;;;;21180073;28;19946;-57
2022/08/10 05:10:32;;;;;;;;;;;;;;;;;;21178407;28;19924;-57
2022/08/10 05:20:35;;;;;;;;;;;;;;;;;;21177356;28;19931;-57
2022/08/10 05:30:37;;;;;;;;;;;;;;;;;;21169750;28;20034;-57
2022/08/10 05:40:39;;;;;;;;;;;;;;;;;;21176610;28;19971;-58
2022/08/10 05:50:41;;;;;;;;;;;;;;;;;;21175745;28;19923;-56
2022/08/10 06:00:45;;;;;;;;;;;;;;;;;;21173605;28;19959;-57
2022/08/10 06:10:47;;;;;;;;;;;;;;;;;;21174001;28;19928;-63
2022/08/10 06:20:48;;;;;;;;;;;;;;;;;;21173462;28;20022;-58
2022/08/10 06:30:50;;;;;;;;;;;;;;;;;;21173778;28;19924;-65
2022/08/10 06:40:52;;;;;;;;;;;;;;;;;;21177847;28;20081;-56
2022/08/10 06:50:54;;;;;;;;;;;;;;;;;;21174352;28;19976;-57
2022/08/10 07:00:56;;;;;;;;;;;;;;;;;;21169808;28;20380;-61
2022/08/10 07:10:58;;;;;;;;;;;;;;;;;;21169000;28;19931;-66
2022/08/10 07:21:00;;;;;;;;;;;;;;;;;;21168656;28;19923;-59
2022/08/10 07:31:02;;;;;;;;;;;;;;;;;;21170221;28;19924;-66
2022/08/10 07:41:04;;;;;;;;;;;;;;;;;;21167625;28;19924;-69
2022/08/10 07:51:06;;;;;;;;;;;;;;;;;;21165502;28;19924;-56
2022/08/10 08:01:08;;;;;;;;;;;;;;;;;;21167456;28;20006;-77
2022/08/10 08:11:10;;;;;;;;;;;;;;;;;;21165481;28;19924;-77
2022/08/10 08:21:12;;;;;;;;;;;;;;;;;;21165176;28;19931;-67
2022/08/10 08:31:31;;;;;;;;;;;;;;;;;;21164931;28;19912;-58
2022/08/10 08:41:33;;;;;;;;;;;;;;;;;;21165776;28;20026;-74
2022/08/10 08:51:34;;;;;;;;;;;;;;;;;;21165333;28;20427;-76
2022/08/10 09:01:36;;;;;;;;;;;;;;;;;;21165311;28;20037;-64
2022/08/10 09:11:38;;;;;;;;;;;;;;;;;;21165547;28;19931;-58
2022/08/10 09:21:40;;;;;;;;;;;;;;;;;;21162134;28;19931;-56
2022/08/10 09:31:42;;;;;;;;;;;;;;;;;;21166387;28;19931;-60
2022/08/10 09:41:43;;;;;;;;;;;;;;;;;;21179457;28;19927;-56
2022/08/10 09:51:46;;;;;;;;;;;;;;;;;;21179574;28;20360;-60
2022/08/10 10:01:48;;;;;;;;;;;;;;;;;;21177459;28;19928;-55
2022/08/10 10:11:50;;;;;;;;;;;;;;;;;;21174553;28;20291;-58
2022/08/10 10:21:52;;;;;;;;;;;;;;;;;;21175260;28;20011;-57
2022/08/10 10:31:54;;;;;;;;;;;;;;;;;;21174649;28;19972;-58
2022/08/10 10:41:56;;;;;;;;;;;;;;;;;;21174200;28;20290;-60
2022/08/10 10:51:58;;;;;;;;;;;;;;;;;;21174597;28;19924;-59
2022/08/10 11:01:59;;;;;;;;;;;;;;;;;;21171022;28;19998;-68
2022/08/10 11:12:02;;;;;;;;;;;;;;;;;;21171916;28;19923;-56
2022/08/10 11:22:03;;;;;;;;;;;;;;;;;;21168784;28;19928;-57
2022/08/10 11:32:05;;;;;;;;;;;;;;;;;;21167615;28;19931;-55
2022/08/10 11:42:07;;;;;;;;;;;;;;;;;;21166995;28;19928;-61
2022/08/10 11:52:09;;;;;;;;;;;;;;;;;;21166021;28;19924;-62
2022/08/10 12:02:11;;;;;;;;;;;;;;;;;;21169766;28;19946;-58
2022/08/10 12:12:13;;;;;;;;;;;;;;;;;;21163572;28;19985;-57
2022/08/10 12:22:14;;;;;;;;;;;;;;;;;;21162873;28;19924;-58
2022/08/10 12:32:17;;;;;;;;;;;;;;;;;;21163399;28;19930;-56
2022/08/10 12:42:19;;;;;;;;;;;;;;;;;;21164591;28;19945;-60
2022/08/10 12:52:21;;;;;;;;;;;;;;;;;;21162762;28;20372;-69
2022/08/10 13:02:22;;;;;;;;;;;;;;;;;;21162156;28;19931;-64
2022/08/10 13:12:24;;;;;;;;;;;;;;;;;;21175914;28;20199;-67
2022/08/10 13:22:26;;;;;;;;;;;;;;;;;;21177405;28;19924;-61
2022/08/10 13:32:30;;;;;;;;;;;;;;;;;;21177314;28;20018;-73
2022/08/10 13:42:32;;;;;;;;;;;;;;;;;;21175416;28;19923;-74
2022/08/10 13:52:34;;;;;;;;;;;;;;;;;;21175440;28;19934;-73
2022/08/10 14:02:36;;;;;;;;;;;;;;;;;;21183725;28;20368;-73
2022/08/10 14:12:38;;;;;;;;;;;;;;;;;;21174498;28;19924;-71
2022/08/10 14:22:42;;;;;;;;;;;;;;;;;;21171821;28;19982;-73
2022/08/10 14:32:45;;;;;;;;;;;;;;;;;;21172839;28;19923;-74
2022/08/10 14:42:46;;;;;;;;;;;;;;;;;;21155916;28;20049;-57
2022/08/10 14:52:48;;;;;;;;;;;;;;;;;;21170638;28;20334;-66
2022/08/10 15:02:50;;;;;;;;;;;;;;;;;;21152818;28;19928;-73
2022/08/10 15:12:52;;;;;;;;;;;;;;;;;;21168278;28;19924;-59
2022/08/10 15:22:53;;;;;;;;;;;;;;;;;;21167505;28;20315;-58
2022/08/10 15:43:16;;;;;;;;;;;;;;;;;;21166062;28;19946;-73
2022/08/10 15:53:18;;;;;;;;;;;;;;;;;;21164938;28;19931;-59
2022/08/10 16:03:19;;;;;;;;;;;;;;;;;;21164858;28;19924;-57
2022/08/10 16:13:21;;;;;;;;;;;;;;;;;;21163740;28;20370;-73
2022/08/10 16:23:23;;;;;;;;;;;;;;;;;;21163588;28;19931;-56
2022/08/10 16:33:25;;;;;;;;;;;;;;;;;;21163779;28;20356;-56
2022/08/10 16:43:26;;;;;;;;;;;;;;;;;;21174814;28;20484;-58
2022/08/10 16:53:28;;;;;;;;;;;;;;;;;;21180584;28;19931;-63
2022/08/10 17:03:30;;;;;;;;;;;;;;;;;;21179092;28;19924;-72
2022/08/10 17:13:32;;;;;;;;;;;;;;;;;;21178820;28;19930;-73
2022/08/10 17:23:34;;;;;;;;;;;;;;;;;;21177424;28;20052;-74
2022/08/10 17:33:37;;;;;;;;;;;;;;;;;;21186794;28;19924;-56
2022/08/10 17:43:39;;;;;;;;;;;;;;;;;;21178773;28;19924;-74
2022/08/10 17:53:41;;;;;;;;;;;;;;;;;;21174004;28;20027;-62
2022/08/10 18:03:43;;;;;;;;;;;;;;;;;;21177920;28;19923;-73
2022/08/10 18:13:45;;;;;;;;;;;;;;;;;;21172584;28;19927;-75
2022/08/10 18:23:47;;;;;;;;;;;;;;;;;;21171411;28;20111;-72
2022/08/10 18:33:48;;;;;;;;;;;;;;;;;;21172589;28;20014;-74
2022/08/10 18:43:50;;;;;;;;;;;;;;;;;;21170824;28;19924;-74
2022/08/10 18:53:52;;;;;;;;;;;;;;;;;;21151162;28;19924;-58
2022/08/10 19:03:53;;;;;;;;;;;;;;;;;;21169303;28;20015;-74
2022/08/10 19:13:55;;;;;;;;;;;;;;;;;;21168682;28;19991;-67
2022/08/10 19:23:57;;;;;;;;;;;;;;;;;;21167680;28;19928;-74
2022/08/10 19:33:58;;;;;;;;;;;;;;;;;;21167832;28;19931;-74
2022/08/10 19:44:00;;;;;;;;;;;;;;;;;;21166207;28;19923;-75
2022/08/10 19:54:02;;;;;;;;;;;;;;;;;;21165407;28;19931;-60
2022/08/10 20:04:04;;;;;;;;;;;;;;;;;;21164360;28;19932;-76
2022/08/10 20:14:05;;;;;;;;;;;;;;;;;;21163558;28;19924;-59
2022/08/10 20:24:07;;;;;;;;;;;;;;;;;;21163003;28;19926;-74
2022/08/10 20:34:09;;;;;;;;;;;;;;;;;;21163603;28;20303;-71
2022/08/10 20:44:11;;;;;;;;;;;;;;;;;;21162992;28;20210;-74
2022/08/10 20:54:13;;;;;;;;;;;;;;;;;;21163966;28;19928;-63
2022/08/10 21:04:15;;;;;;;;;;;;;;;;;;21162248;28;19950;-57
2022/08/10 21:14:16;;;;;;;;;;;;;;;;;;21162183;28;19924;-75
2022/08/10 21:24:18;;;;;;;;;;;;;;;;;;21163362;28;20340;-59
2022/08/10 23:07:05;;;;;;;;;;;;;;;;;;21169065;28;19972;-58
2022/08/10 23:27:27;;;;;;;;;;;;;;;;;;21167408;28;19948;-57
2022/08/10 23:37:29;;;;;;;;;;;;;;;;;;21166975;28;19977;-71
2022/08/10 23:47:30;;;;;;;;;;;;;;;;;;21165674;28;19930;-57
2022/08/10 23:57:32;;;;;;;;;;;;;;;;;;21164839;28;20127;-56
